METAR Data
IDs: Format: Raw Decoded Include TAF

Data at: 1716 UTC 21 Sep 2018

KDAL 211653Z 16011KT 10SM SCT020 BKN080 BKN130 OVC250 28/24 A2997 RMK AO2 RAB14E30 SLP143 P0000 T02780244
KDAL 211553Z 17010KT 10SM FEW012 SCT024 BKN100 OVC250 28/24 A2998 RMK AO2 SLP143 SCT V BKN T02780244
KDAL 211545Z 18009KT 10SM FEW012 SCT024 BKN100 OVC250 28/24 A2997 RMK AO2 SCT V BKN T02780244
KDAL 211514Z 16012KT 10SM FEW012 BKN024 BKN090 OVC250 27/24 A2997 RMK AO2 T02720239
KDAL 211453Z 16011KT 10SM SCT016 BKN080 OVC250 27/24 A2997 RMK AO2 SLP141 T02720244 53008
KDAL 211450Z 17012KT 10SM SCT016 BKN080 OVC250 27/24 A2996 RMK AO2
KDAL 211434Z 15011KT 10SM BKN016 BKN024 BKN100 27/24 A2996 RMK AO2 T02670244
KDAL 211353Z 16009KT 10SM BKN014 BKN100 BKN250 27/24 A2996 RMK AO2 SLP138 T02670239
KDAL 211253Z 15007KT 10SM BKN014 BKN090 BKN130 BKN250 26/24 A2995 RMK AO2 SLP134 BKN014 V SCT T02610239
KDAL 211153Z 17007KT 10SM BKN014 BKN080 26/23 A2994 RMK AO2 SLP132 BKN014 V SCT 70025 T02560233 10256 20244 53004
KDAL 211115Z 17009KT 10SM BKN014 OVC090 26/23 A2993 RMK AO2 T02560233
KDAL 211053Z 17009KT 10SM FEW070 BKN090 OVC160 26/23 A2993 RMK AO2 SLP128 T02560233
KDAL 210953Z 17009KT 10SM FEW060 OVC080 25/23 A2993 RMK AO2 SLP128 T02500228
KDAL 210853Z 16009KT 10SM FEW065 OVC080 25/22 A2993 RMK AO2 SLP127 T02500222 57004
KDAL 210753Z 17010KT 10SM OVC065 25/22 A2994 RMK AO2 SLP129 T02500222
KDAL 210653Z 15008KT 10SM FEW040 OVC065 24/22 A2994 RMK AO2 SLP129 T02440217
KDAL 210553Z 16006KT 10SM BKN070 OVC180 25/22 A2994 RMK AO2 SLP131 60004 T02500217 10256 20233 403330228 58002
KDAL 210453Z 17005KT 10SM FEW140 BKN180 BKN250 24/22 A2995 RMK AO2 RAB05E14 SLP135 P0000 T02440217
KDAL 210353Z 17010KT 10SM SCT120 OVC250 25/21 A2996 RMK AO2 SLP137 T02500211
KDAL 210253Z 13009KT 10SM SCT070 BKN090 BKN160 BKN250 25/22 A2995 RMK AO2 RAE00 SLP133 P0000 60004 T02500217 51012
KDAL 210153Z 13009KT 10SM -RA FEW050 SCT095 BKN110 OVC160 25/23 A2994 RMK AO2 RAB48 SLP132 P0000 T02500228
KDAL 210053Z 11007KT 10SM SCT046CB BKN065 BKN110 BKN170 BKN250 24/23 A2992 RMK AO2 RAE29 TSE48 SLP124 OCNL LTGICCG DSNT N-NE TS MOVD N CB NE-E AND DSNT NW-NE-E MOV N TCU W P0004 T02440228
KDAL 210048Z 10007KT 10SM SCT046CB BKN065 BKN110 BKN170 BKN250 24/22 A2991
KDAL 210030Z 09005KT 10SM TS SCT044 BKN055CB BKN110 BKN170 BKN250 24/21 A2991
KDAL 210012Z 01004KT 8SM -TSRA SCT037 BKN050CB BKN070 BKN170 BKN250 23/21 A2991
KDAL 202353Z 00000KT 4SM R13L/6000VP6000FT +TSRA BKN039 BKN047CB BKN065 OVC170 23/21 A2991 RMK AO2 PK WND 15046/2335 RAB30 TSB21 SLP122 VIS NW-N 2 1/2 FRQ LTGICCGCC TS OHD-ALQDS MOV N P0021 60021 T02330206 10333 20228 53008
KDAL 202347Z 14015G45KT 2 1/2SM R13L/4000VP6000FT +TSRA SCT033 BKN047CB OVC065 23/20 A2992 RMK AO2 PK WND 15046/2335 RAB30 TSB21 VIS E-S 4 OCNL LTGICCGCC TS OHD-ALQDS MOV N P0014
KDAL 202340Z 14035G46KT 1 1/2SM R13L/4000VP6000FT +TSRA BKN045CB OVC080 24/20 A2991 RMK AO2 PK WND 15046/2335 RAB30 TSB21 VIS SE 1/2 OCNL LTGICCGCC TS OHD-ALQDS MOV N P0000 T02440200
KDAL 202336Z 15037G46KT 6SM -TSRA BKN045CB BKN080 BKN170 BKN250 27/19 A2990 RMK AO2 PK WND 15046/2335 RAB30 TSB21 VIS SE 2 OCNL LTGICCGCC TS OHD-ALQDS MOV N P0000 T02720189
KDAL 202321Z 16012KT 10SM TS SCT050CB SCT080 BKN170 BKN250 31/21 A2988 RMK AO2 TSB21 OCNL LTGICCGCC SE-SW AND DSNT E-S-W TS SE-SW MOV N CB DSNT E-S-W MOV N TCU E-S-W T03110211
KDAL 202253Z 14012KT 10SM FEW055TCU FEW080 SCT160 BKN250 31/21 A2988 RMK AO2 SLP109 OCNL LTGICCG CB DSNT SE-SW-W MOV N TCU SE-S W T03110211
KDAL 202153Z 16013KT 10SM FEW055CB SCT080 BKN160 BKN250 32/21 A2987 RMK AO2 SLP108 CB NW-NE AND DSNT NE-E MOV N TCU N-NE AND DSNT N-E T03170206
KDAL 202138Z 17012KT 10SM SCT055CB BKN080 BKN200 BKN250 32/21 A2988 RMK AO2 CB OHD-W-N AND DSNT E MOV N TCU N-NE SW-W AND DSNT NE-E S-SW T03220206
KDAL 202053Z 18007G16KT 10SM SCT048TCU SCT130 BKN200 BKN250 33/21 A2989 RMK AO2 SLP113 OCNL LTGIC DSNT SE CB DSNT SE NW MOV N TCU N-E-S-SW T03280211 56023
KDAL 201953Z 18011KT 10SM FEW041TCU FEW130 BKN200 BKN250 32/22 A2991 RMK AO2 SLP122 TCU NE-E SW-W AND DSNT S-SW T03170217
KDAL 201853Z 20008KT 10SM FEW037 FEW046 FEW130 BKN200 BKN250 32/22 A2993 RMK AO2 SLP127 T03170217
KDAL 201753Z 17012G17KT 10SM BKN039 BKN055 BKN130 BKN200 BKN250 31/22 A2996 RMK AO2 SLP135 T03110217 10322 20250 58006
KDAL 201653Z 15009KT 10SM SCT039 SCT046 32/22 A2998 RMK AO2 SLP143 T03170222
KDAL 201553Z 16007KT 10SM FEW030 FEW150 SCT240 30/22 A2998 RMK AO2 SLP143 T03000222
KDAL 201453Z 16008KT 10SM FEW020 FEW150 BKN240 28/22 A2997 RMK AO2 SLP142 T02780222 53014
KDAL 201353Z 16008KT 10SM FEW150 BKN230 28/22 A2995 RMK AO2 SLP134 T02780222
KDAL 201253Z 13007KT 10SM FEW015 SCT250 25/22 A2994 RMK AO2 SLP132 T02500222
KDAL 201153Z 17005KT 10SM FEW150 FEW250 26/22 A2993 RMK AO2 SLP128 T02560217 10294 20250 53006 $
KDAL 201053Z 18005KT 10SM FEW180 SCT250 26/22 A2992 RMK AO2 SLP123 T02560217 $
KDAL 200953Z 17009KT 10SM FEW180 FEW250 26/22 A2992 RMK AO2 SLP123 T02610217 $
KDAL 200853Z 18006KT 10SM FEW180 27/22 A2991 RMK AO2 SLP121 T02670217 56010 $
KDAL 200753Z 16007KT 10SM FEW180 FEW250 27/22 A2992 RMK AO2 SLP124 T02720222 $
KDAL 200653Z 15010KT 10SM FEW180 SCT250 28/21 A2993 RMK AO2 SLP126 T02830211 $
KDAL 200553Z 15010KT 10SM FEW180 FEW250 29/21 A2994 RMK AO2 SLP131 T02940206 10339 20294 403560261 51013 $